sensor_id;sensor_type;location;lat;lon;timestamp;P1;durP1;ratioP1;P2;durP2;ratioP2
5452;SDS011;2749;53.576;9.822;2023-07-13T00:00:22;3.70;;;2.50;;
5452;SDS011;2749;53.576;9.822;2023-07-13T00:02:48;5.00;;;3.00;;
5452;SDS011;2749;53.576;9.822;2023-07-13T00:05:14;3.37;;;2.30;;
5452;SDS011;2749;53.576;9.822;2023-07-13T00:07:41;3.27;;;2.97;;
5452;SDS011;2749;53.576;9.822;2023-07-13T00:10:07;2.57;;;2.37;;
5452;SDS011;2749;53.576;9.822;2023-07-13T00:12:35;3.93;;;3.03;;
5452;SDS011;2749;53.576;9.822;2023-07-13T00:15:03;3.97;;;2.50;;
5452;SDS011;2749;53.576;9.822;2023-07-13T00:17:29;2.67;;;2.47;;
5452;SDS011;2749;53.576;9.822;2023-07-13T00:19:55;4.87;;;2.50;;
5452;SDS011;2749;53.576;9.822;2023-07-13T00:22:22;3.17;;;2.97;;
5452;SDS011;2749;53.576;9.822;2023-07-13T00:24:50;2.77;;;2.30;;
5452;SDS011;2749;53.576;9.822;2023-07-13T00:27:16;3.80;;;2.73;;
5452;SDS011;2749;53.576;9.822;2023-07-13T00:29:43;5.73;;;3.20;;
5452;SDS011;2749;53.576;9.822;2023-07-13T00:32:09;4.70;;;3.13;;
5452;SDS011;2749;53.576;9.822;2023-07-13T00:34:36;5.77;;;2.43;;
5452;SDS011;2749;53.576;9.822;2023-07-13T00:37:02;3.33;;;3.10;;
5452;SDS011;2749;53.576;9.822;2023-07-13T00:39:28;2.40;;;2.20;;
5452;SDS011;2749;53.576;9.822;2023-07-13T00:41:54;3.33;;;2.67;;
5452;SDS011;2749;53.576;9.822;2023-07-13T00:44:20;3.03;;;2.40;;
5452;SDS011;2749;53.576;9.822;2023-07-13T00:46:48;2.63;;;2.40;;
5452;SDS011;2749;53.576;9.822;2023-07-13T00:49:19;3.13;;;2.83;;
5452;SDS011;2749;53.576;9.822;2023-07-13T00:51:50;6.47;;;4.23;;
5452;SDS011;2749;53.576;9.822;2023-07-13T00:54:18;8.33;;;3.70;;
5452;SDS011;2749;53.576;9.822;2023-07-13T00:56:45;5.23;;;3.30;;
5452;SDS011;2749;53.576;9.822;2023-07-13T00:59:12;6.13;;;3.20;;
5452;SDS011;2749;53.576;9.822;2023-07-13T01:01:39;6.73;;;3.07;;
5452;SDS011;2749;53.576;9.822;2023-07-13T01:04:05;4.87;;;3.97;;
5452;SDS011;2749;53.576;9.822;2023-07-13T01:06:33;5.03;;;4.50;;
5452;SDS011;2749;53.576;9.822;2023-07-13T01:09:00;4.47;;;4.07;;
5452;SDS011;2749;53.576;9.822;2023-07-13T01:11:26;4.43;;;4.10;;
5452;SDS011;2749;53.576;9.822;2023-07-13T01:13:52;4.27;;;3.90;;
5452;SDS011;2749;53.576;9.822;2023-07-13T01:16:24;3.87;;;3.50;;
5452;SDS011;2749;53.576;9.822;2023-07-13T01:18:50;5.50;;;5.00;;
5452;SDS011;2749;53.576;9.822;2023-07-13T01:21:16;9.10;;;4.27;;
5452;SDS011;2749;53.576;9.822;2023-07-13T01:23:43;5.13;;;4.73;;
5452;SDS011;2749;53.576;9.822;2023-07-13T01:26:10;8.00;;;5.20;;
5452;SDS011;2749;53.576;9.822;2023-07-13T01:28:36;6.50;;;4.73;;
5452;SDS011;2749;53.576;9.822;2023-07-13T01:31:03;5.20;;;4.03;;
5452;SDS011;2749;53.576;9.822;2023-07-13T01:33:29;5.20;;;3.97;;
5452;SDS011;2749;53.576;9.822;2023-07-13T01:35:55;4.20;;;3.80;;
5452;SDS011;2749;53.576;9.822;2023-07-13T01:38:23;8.93;;;4.50;;
5452;SDS011;2749;53.576;9.822;2023-07-13T01:40:49;4.70;;;4.30;;
5452;SDS011;2749;53.576;9.822;2023-07-13T01:43:16;6.87;;;4.43;;
5452;SDS011;2749;53.576;9.822;2023-07-13T01:45:42;7.57;;;4.40;;
5452;SDS011;2749;53.576;9.822;2023-07-13T01:48:09;4.80;;;4.30;;
5452;SDS011;2749;53.576;9.822;2023-07-13T01:50:35;4.60;;;4.23;;
5452;SDS011;2749;53.576;9.822;2023-07-13T01:53:01;7.60;;;4.73;;
5452;SDS011;2749;53.576;9.822;2023-07-13T01:55:27;5.40;;;4.90;;
5452;SDS011;2749;53.576;9.822;2023-07-13T01:57:54;6.40;;;5.90;;
5452;SDS011;2749;53.576;9.822;2023-07-13T02:00:20;9.43;;;6.47;;
5452;SDS011;2749;53.576;9.822;2023-07-13T02:02:46;9.10;;;6.37;;
5452;SDS011;2749;53.576;9.822;2023-07-13T02:05:12;6.07;;;5.47;;
5452;SDS011;2749;53.576;9.822;2023-07-13T02:07:38;8.23;;;6.20;;
5452;SDS011;2749;53.576;9.822;2023-07-13T02:10:04;5.10;;;4.63;;
5452;SDS011;2749;53.576;9.822;2023-07-13T02:12:30;5.13;;;4.67;;
5452;SDS011;2749;53.576;9.822;2023-07-13T02:14:56;6.07;;;5.47;;
5452;SDS011;2749;53.576;9.822;2023-07-13T02:17:22;5.63;;;5.13;;
5452;SDS011;2749;53.576;9.822;2023-07-13T02:19:48;5.73;;;5.10;;
5452;SDS011;2749;53.576;9.822;2023-07-13T02:22:14;5.70;;;5.20;;
5452;SDS011;2749;53.576;9.822;2023-07-13T02:24:40;5.30;;;4.90;;
5452;SDS011;2749;53.576;9.822;2023-07-13T02:27:06;7.10;;;6.17;;
5452;SDS011;2749;53.576;9.822;2023-07-13T02:29:32;6.00;;;5.50;;
5452;SDS011;2749;53.576;9.822;2023-07-13T02:31:58;5.97;;;5.47;;
5452;SDS011;2749;53.576;9.822;2023-07-13T02:34:24;9.00;;;5.93;;
5452;SDS011;2749;53.576;9.822;2023-07-13T02:36:50;6.03;;;5.53;;
5452;SDS011;2749;53.576;9.822;2023-07-13T02:39:16;7.00;;;5.37;;
5452;SDS011;2749;53.576;9.822;2023-07-13T02:41:42;8.27;;;5.40;;
5452;SDS011;2749;53.576;9.822;2023-07-13T02:44:08;10.00;;;5.70;;
5452;SDS011;2749;53.576;9.822;2023-07-13T02:46:35;8.90;;;5.90;;
5452;SDS011;2749;53.576;9.822;2023-07-13T02:49:01;7.23;;;5.83;;
5452;SDS011;2749;53.576;9.822;2023-07-13T02:51:27;6.40;;;5.80;;
5452;SDS011;2749;53.576;9.822;2023-07-13T02:53:53;11.53;;;5.83;;
5452;SDS011;2749;53.576;9.822;2023-07-13T02:56:22;7.23;;;5.80;;
5452;SDS011;2749;53.576;9.822;2023-07-13T02:58:48;7.53;;;5.33;;
5452;SDS011;2749;53.576;9.822;2023-07-13T03:01:14;8.27;;;5.43;;
5452;SDS011;2749;53.576;9.822;2023-07-13T03:03:44;6.17;;;5.57;;
5452;SDS011;2749;53.576;9.822;2023-07-13T03:06:11;5.50;;;4.97;;
5452;SDS011;2749;53.576;9.822;2023-07-13T03:08:37;5.90;;;5.40;;
5452;SDS011;2749;53.576;9.822;2023-07-13T03:11:07;6.10;;;5.50;;
5452;SDS011;2749;53.576;9.822;2023-07-13T03:13:33;6.33;;;5.73;;
5452;SDS011;2749;53.576;9.822;2023-07-13T03:15:59;5.73;;;5.13;;
5452;SDS011;2749;53.576;9.822;2023-07-13T03:18:26;7.70;;;6.83;;
5452;SDS011;2749;53.576;9.822;2023-07-13T03:20:53;8.20;;;6.57;;
5452;SDS011;2749;53.576;9.822;2023-07-13T03:23:19;6.43;;;5.70;;
5452;SDS011;2749;53.576;9.822;2023-07-13T03:25:46;7.80;;;6.70;;
5452;SDS011;2749;53.576;9.822;2023-07-13T03:28:12;7.40;;;6.13;;
5452;SDS011;2749;53.576;9.822;2023-07-13T03:30:38;6.67;;;6.07;;
5452;SDS011;2749;53.576;9.822;2023-07-13T03:33:04;7.03;;;6.37;;
5452;SDS011;2749;53.576;9.822;2023-07-13T03:35:30;7.30;;;6.30;;
5452;SDS011;2749;53.576;9.822;2023-07-13T03:37:57;6.00;;;5.37;;
5452;SDS011;2749;53.576;9.822;2023-07-13T03:40:24;7.03;;;5.40;;
5452;SDS011;2749;53.576;9.822;2023-07-13T03:42:50;6.37;;;5.77;;
5452;SDS011;2749;53.576;9.822;2023-07-13T03:45:16;8.70;;;5.57;;
5452;SDS011;2749;53.576;9.822;2023-07-13T03:47:42;13.90;;;5.77;;
5452;SDS011;2749;53.576;9.822;2023-07-13T03:50:08;6.97;;;6.27;;
5452;SDS011;2749;53.576;9.822;2023-07-13T03:52:34;9.27;;;5.93;;
5452;SDS011;2749;53.576;9.822;2023-07-13T03:55:00;7.97;;;5.43;;
5452;SDS011;2749;53.576;9.822;2023-07-13T03:57:26;6.40;;;5.83;;
5452;SDS011;2749;53.576;9.822;2023-07-13T03:59:52;10.37;;;4.97;;
5452;SDS011;2749;53.576;9.822;2023-07-13T04:02:18;6.63;;;6.00;;
5452;SDS011;2749;53.576;9.822;2023-07-13T04:04:44;6.30;;;5.70;;
5452;SDS011;2749;53.576;9.822;2023-07-13T04:07:11;5.30;;;4.80;;
5452;SDS011;2749;53.576;9.822;2023-07-13T04:09:37;6.13;;;5.50;;
5452;SDS011;2749;53.576;9.822;2023-07-13T04:12:03;5.13;;;4.77;;
5452;SDS011;2749;53.576;9.822;2023-07-13T04:14:29;5.80;;;4.70;;
5452;SDS011;2749;53.576;9.822;2023-07-13T04:16:55;5.33;;;4.83;;
5452;SDS011;2749;53.576;9.822;2023-07-13T04:19:22;6.07;;;5.47;;
5452;SDS011;2749;53.576;9.822;2023-07-13T04:21:48;5.50;;;5.00;;
5452;SDS011;2749;53.576;9.822;2023-07-13T04:24:14;6.33;;;5.63;;
5452;SDS011;2749;53.576;9.822;2023-07-13T04:26:40;10.77;;;5.10;;
5452;SDS011;2749;53.576;9.822;2023-07-13T04:29:06;7.83;;;5.23;;
5452;SDS011;2749;53.576;9.822;2023-07-13T04:31:32;6.53;;;4.77;;
5452;SDS011;2749;53.576;9.822;2023-07-13T04:33:59;9.50;;;6.20;;
5452;SDS011;2749;53.576;9.822;2023-07-13T04:36:25;7.47;;;5.13;;
5452;SDS011;2749;53.576;9.822;2023-07-13T04:38:54;8.27;;;5.90;;
5452;SDS011;2749;53.576;9.822;2023-07-13T04:41:20;5.80;;;5.13;;
5452;SDS011;2749;53.576;9.822;2023-07-13T04:43:46;8.20;;;6.10;;
5452;SDS011;2749;53.576;9.822;2023-07-13T04:46:13;7.33;;;5.63;;
5452;SDS011;2749;53.576;9.822;2023-07-13T04:48:40;13.20;;;6.10;;
5452;SDS011;2749;53.576;9.822;2023-07-13T04:51:06;7.00;;;6.33;;
5452;SDS011;2749;53.576;9.822;2023-07-13T04:53:32;6.70;;;5.40;;
5452;SDS011;2749;53.576;9.822;2023-07-13T04:55:59;13.67;;;5.40;;
5452;SDS011;2749;53.576;9.822;2023-07-13T04:58:25;6.27;;;5.63;;
5452;SDS011;2749;53.576;9.822;2023-07-13T05:00:52;5.60;;;5.10;;
5452;SDS011;2749;53.576;9.822;2023-07-13T05:03:18;7.53;;;5.13;;
5452;SDS011;2749;53.576;9.822;2023-07-13T05:05:53;10.43;;;6.00;;
5452;SDS011;2749;53.576;9.822;2023-07-13T05:08:19;9.00;;;6.20;;
5452;SDS011;2749;53.576;9.822;2023-07-13T05:10:45;9.83;;;5.57;;
5452;SDS011;2749;53.576;9.822;2023-07-13T05:13:11;8.40;;;5.20;;
5452;SDS011;2749;53.576;9.822;2023-07-13T05:15:37;6.40;;;5.80;;
5452;SDS011;2749;53.576;9.822;2023-07-13T05:18:03;7.30;;;5.70;;
5452;SDS011;2749;53.576;9.822;2023-07-13T05:20:29;6.40;;;5.10;;
5452;SDS011;2749;53.576;9.822;2023-07-13T05:22:55;9.33;;;5.03;;
5452;SDS011;2749;53.576;9.822;2023-07-13T05:25:21;6.13;;;5.53;;
5452;SDS011;2749;53.576;9.822;2023-07-13T05:27:47;7.93;;;5.57;;
5452;SDS011;2749;53.576;9.822;2023-07-13T05:30:14;9.43;;;6.00;;
5452;SDS011;2749;53.576;9.822;2023-07-13T05:32:40;5.50;;;5.00;;
5452;SDS011;2749;53.576;9.822;2023-07-13T05:35:06;10.67;;;5.90;;
5452;SDS011;2749;53.576;9.822;2023-07-13T05:37:32;14.07;;;5.83;;
5452;SDS011;2749;53.576;9.822;2023-07-13T05:39:58;11.90;;;5.17;;
5452;SDS011;2749;53.576;9.822;2023-07-13T05:42:24;7.20;;;5.67;;
5452;SDS011;2749;53.576;9.822;2023-07-13T05:44:50;6.90;;;5.70;;
5452;SDS011;2749;53.576;9.822;2023-07-13T05:47:16;12.10;;;5.47;;
5452;SDS011;2749;53.576;9.822;2023-07-13T05:49:42;8.40;;;5.40;;
5452;SDS011;2749;53.576;9.822;2023-07-13T05:52:08;13.23;;;6.03;;
5452;SDS011;2749;53.576;9.822;2023-07-13T05:54:33;7.20;;;4.67;;
5452;SDS011;2749;53.576;9.822;2023-07-13T05:56:59;11.37;;;5.30;;
5452;SDS011;2749;53.576;9.822;2023-07-13T05:59:25;8.57;;;5.83;;
5452;SDS011;2749;53.576;9.822;2023-07-13T06:01:51;14.00;;;6.17;;
5452;SDS011;2749;53.576;9.822;2023-07-13T06:04:17;12.17;;;6.40;;
5452;SDS011;2749;53.576;9.822;2023-07-13T06:06:44;7.60;;;5.10;;
5452;SDS011;2749;53.576;9.822;2023-07-13T06:09:10;9.57;;;5.53;;
5452;SDS011;2749;53.576;9.822;2023-07-13T06:11:36;9.00;;;5.20;;
5452;SDS011;2749;53.576;9.822;2023-07-13T06:14:02;9.03;;;5.23;;
5452;SDS011;2749;53.576;9.822;2023-07-13T06:16:28;8.10;;;5.10;;
5452;SDS011;2749;53.576;9.822;2023-07-13T06:18:54;10.50;;;6.03;;
5452;SDS011;2749;53.576;9.822;2023-07-13T06:21:21;8.13;;;5.67;;
5452;SDS011;2749;53.576;9.822;2023-07-13T06:23:48;12.90;;;6.53;;
5452;SDS011;2749;53.576;9.822;2023-07-13T06:26:15;12.70;;;5.43;;
5452;SDS011;2749;53.576;9.822;2023-07-13T06:28:41;8.60;;;5.10;;
5452;SDS011;2749;53.576;9.822;2023-07-13T06:31:07;10.37;;;4.97;;
5452;SDS011;2749;53.576;9.822;2023-07-13T06:33:34;8.27;;;4.50;;
5452;SDS011;2749;53.576;9.822;2023-07-13T06:36:01;9.43;;;4.90;;
5452;SDS011;2749;53.576;9.822;2023-07-13T06:38:27;15.20;;;5.00;;
5452;SDS011;2749;53.576;9.822;2023-07-13T06:40:53;13.80;;;5.57;;
5452;SDS011;2749;53.576;9.822;2023-07-13T06:43:19;7.27;;;4.43;;
5452;SDS011;2749;53.576;9.822;2023-07-13T06:45:46;15.40;;;5.37;;
5452;SDS011;2749;53.576;9.822;2023-07-13T06:48:14;5.90;;;4.20;;
5452;SDS011;2749;53.576;9.822;2023-07-13T06:50:41;7.47;;;4.80;;
5452;SDS011;2749;53.576;9.822;2023-07-13T06:53:07;7.93;;;3.97;;
5452;SDS011;2749;53.576;9.822;2023-07-13T06:55:33;10.13;;;4.93;;
5452;SDS011;2749;53.576;9.822;2023-07-13T06:57:59;12.73;;;5.27;;
5452;SDS011;2749;53.576;9.822;2023-07-13T07:00:25;6.33;;;4.13;;
5452;SDS011;2749;53.576;9.822;2023-07-13T07:02:51;6.00;;;4.07;;
5452;SDS011;2749;53.576;9.822;2023-07-13T07:05:17;10.23;;;3.90;;
5452;SDS011;2749;53.576;9.822;2023-07-13T07:07:44;11.43;;;5.27;;
5452;SDS011;2749;53.576;9.822;2023-07-13T07:10:10;8.30;;;4.30;;
5452;SDS011;2749;53.576;9.822;2023-07-13T07:12:36;6.20;;;3.90;;
5452;SDS011;2749;53.576;9.822;2023-07-13T07:15:02;13.07;;;4.60;;
5452;SDS011;2749;53.576;9.822;2023-07-13T07:17:28;9.83;;;4.57;;
5452;SDS011;2749;53.576;9.822;2023-07-13T07:19:54;10.20;;;4.40;;
5452;SDS011;2749;53.576;9.822;2023-07-13T07:22:20;9.47;;;4.30;;
5452;SDS011;2749;53.576;9.822;2023-07-13T07:24:46;5.13;;;4.67;;
5452;SDS011;2749;53.576;9.822;2023-07-13T07:27:12;15.43;;;4.70;;
5452;SDS011;2749;53.576;9.822;2023-07-13T07:29:38;14.37;;;3.83;;
5452;SDS011;2749;53.576;9.822;2023-07-13T07:32:04;19.40;;;5.07;;
5452;SDS011;2749;53.576;9.822;2023-07-13T07:34:30;7.80;;;4.73;;
5452;SDS011;2749;53.576;9.822;2023-07-13T07:36:58;12.57;;;5.50;;
5452;SDS011;2749;53.576;9.822;2023-07-13T07:39:25;6.23;;;3.80;;
5452;SDS011;2749;53.576;9.822;2023-07-13T07:41:51;12.00;;;5.50;;
5452;SDS011;2749;53.576;9.822;2023-07-13T07:44:17;6.53;;;3.67;;
5452;SDS011;2749;53.576;9.822;2023-07-13T07:46:43;6.10;;;4.40;;
5452;SDS011;2749;53.576;9.822;2023-07-13T07:49:09;6.73;;;3.37;;
5452;SDS011;2749;53.576;9.822;2023-07-13T07:51:35;10.07;;;3.67;;
5452;SDS011;2749;53.576;9.822;2023-07-13T07:54:01;7.93;;;3.93;;
5452;SDS011;2749;53.576;9.822;2023-07-13T07:56:28;8.50;;;3.30;;
5452;SDS011;2749;53.576;9.822;2023-07-13T07:58:53;4.67;;;3.50;;
5452;SDS011;2749;53.576;9.822;2023-07-13T08:01:19;12.43;;;3.63;;
5452;SDS011;2749;53.576;9.822;2023-07-13T08:03:45;6.73;;;3.13;;
5452;SDS011;2749;53.576;9.822;2023-07-13T08:06:11;9.90;;;3.50;;
5452;SDS011;2749;53.576;9.822;2023-07-13T08:08:38;5.90;;;3.17;;
5452;SDS011;2749;53.576;9.822;2023-07-13T08:11:04;13.33;;;4.13;;
5452;SDS011;2749;53.576;9.822;2023-07-13T08:13:31;7.43;;;3.60;;
5452;SDS011;2749;53.576;9.822;2023-07-13T08:15:57;10.67;;;3.90;;
5452;SDS011;2749;53.576;9.822;2023-07-13T08:18:23;9.90;;;3.60;;
5452;SDS011;2749;53.576;9.822;2023-07-13T08:20:49;10.70;;;3.60;;
5452;SDS011;2749;53.576;9.822;2023-07-13T08:23:15;13.00;;;5.33;;
5452;SDS011;2749;53.576;9.822;2023-07-13T08:25:41;9.13;;;3.70;;
5452;SDS011;2749;53.576;9.822;2023-07-13T08:28:07;8.00;;;5.53;;
5452;SDS011;2749;53.576;9.822;2023-07-13T08:30:34;11.17;;;3.80;;
5452;SDS011;2749;53.576;9.822;2023-07-13T08:33:01;8.47;;;4.70;;
5452;SDS011;2749;53.576;9.822;2023-07-13T08:35:27;6.73;;;2.80;;
5452;SDS011;2749;53.576;9.822;2023-07-13T08:37:53;8.57;;;4.00;;
5452;SDS011;2749;53.576;9.822;2023-07-13T08:40:19;9.83;;;4.07;;
5452;SDS011;2749;53.576;9.822;2023-07-13T08:42:52;5.67;;;3.43;;
5452;SDS011;2749;53.576;9.822;2023-07-13T08:45:24;8.60;;;3.70;;
5452;SDS011;2749;53.576;9.822;2023-07-13T08:48:00;8.63;;;3.63;;
5452;SDS011;2749;53.576;9.822;2023-07-13T08:50:34;9.27;;;3.60;;
5452;SDS011;2749;53.576;9.822;2023-07-13T08:53:01;8.20;;;3.70;;
5452;SDS011;2749;53.576;9.822;2023-07-13T08:55:31;8.03;;;3.03;;
5452;SDS011;2749;53.576;9.822;2023-07-13T08:58:34;5.77;;;3.70;;
5452;SDS011;2749;53.576;9.822;2023-07-13T09:01:02;8.77;;;3.63;;
5452;SDS011;2749;53.576;9.822;2023-07-13T09:03:31;5.77;;;2.67;;
5452;SDS011;2749;53.576;9.822;2023-07-13T09:06:03;3.23;;;2.93;;
5452;SDS011;2749;53.576;9.822;2023-07-13T09:08:42;5.20;;;3.37;;
5452;SDS011;2749;53.576;9.822;2023-07-13T09:11:19;4.70;;;2.50;;
5452;SDS011;2749;53.576;9.822;2023-07-13T09:13:57;5.13;;;3.90;;
5452;SDS011;2749;53.576;9.822;2023-07-13T09:16:26;5.50;;;3.23;;
5452;SDS011;2749;53.576;9.822;2023-07-13T09:18:53;7.70;;;3.47;;
5452;SDS011;2749;53.576;9.822;2023-07-13T09:21:24;5.30;;;3.70;;
5452;SDS011;2749;53.576;9.822;2023-07-13T09:23:54;11.70;;;4.00;;
5452;SDS011;2749;53.576;9.822;2023-07-13T09:26:23;5.00;;;3.27;;
5452;SDS011;2749;53.576;9.822;2023-07-13T09:31:42;9.43;;;2.97;;
5452;SDS011;2749;53.576;9.822;2023-07-13T09:34:09;6.13;;;3.63;;
5452;SDS011;2749;53.576;9.822;2023-07-13T09:36:36;5.03;;;3.60;;
5452;SDS011;2749;53.576;9.822;2023-07-13T09:39:03;9.07;;;3.50;;
5452;SDS011;2749;53.576;9.822;2023-07-13T09:41:33;5.30;;;3.03;;
5452;SDS011;2749;53.576;9.822;2023-07-13T09:44:09;6.03;;;3.40;;
5452;SDS011;2749;53.576;9.822;2023-07-13T09:46:36;7.93;;;3.40;;
5452;SDS011;2749;53.576;9.822;2023-07-13T09:49:02;5.33;;;3.47;;
5452;SDS011;2749;53.576;9.822;2023-07-13T09:51:28;6.00;;;3.13;;
5452;SDS011;2749;53.576;9.822;2023-07-13T09:53:54;4.80;;;3.17;;
5452;SDS011;2749;53.576;9.822;2023-07-13T09:56:26;6.60;;;3.00;;
5452;SDS011;2749;53.576;9.822;2023-07-13T09:58:52;5.03;;;2.80;;
5452;SDS011;2749;53.576;9.822;2023-07-13T10:01:37;8.50;;;4.03;;
5452;SDS011;2749;53.576;9.822;2023-07-13T10:04:10;4.50;;;2.63;;
5452;SDS011;2749;53.576;9.822;2023-07-13T10:06:38;3.03;;;2.70;;
5452;SDS011;2749;53.576;9.822;2023-07-13T10:09:06;8.20;;;4.57;;
5452;SDS011;2749;53.576;9.822;2023-07-13T10:11:34;3.60;;;2.30;;
5452;SDS011;2749;53.576;9.822;2023-07-13T10:14:01;3.03;;;2.23;;
5452;SDS011;2749;53.576;9.822;2023-07-13T10:16:28;4.40;;;3.10;;
5452;SDS011;2749;53.576;9.822;2023-07-13T10:18:59;4.00;;;2.30;;
5452;SDS011;2749;53.576;9.822;2023-07-13T10:21:27;4.47;;;2.57;;
5452;SDS011;2749;53.576;9.822;2023-07-13T10:23:55;2.67;;;2.30;;
5452;SDS011;2749;53.576;9.822;2023-07-13T10:26:29;5.87;;;2.60;;
5452;SDS011;2749;53.576;9.822;2023-07-13T10:28:57;5.27;;;2.63;;
5452;SDS011;2749;53.576;9.822;2023-07-13T10:31:24;6.30;;;3.10;;
5452;SDS011;2749;53.576;9.822;2023-07-13T10:33:50;3.63;;;2.90;;
5452;SDS011;2749;53.576;9.822;2023-07-13T10:38:59;5.10;;;1.93;;
5452;SDS011;2749;53.576;9.822;2023-07-13T10:41:26;10.07;;;2.80;;
5452;SDS011;2749;53.576;9.822;2023-07-13T10:43:54;7.10;;;2.20;;
5452;SDS011;2749;53.576;9.822;2023-07-13T10:46:22;2.33;;;1.93;;
5452;SDS011;2749;53.576;9.822;2023-07-13T10:48:50;6.23;;;2.53;;
5452;SDS011;2749;53.576;9.822;2023-07-13T10:51:18;7.17;;;2.53;;
5452;SDS011;2749;53.576;9.822;2023-07-13T10:53:48;10.10;;;2.80;;
5452;SDS011;2749;53.576;9.822;2023-07-13T10:56:34;2.67;;;2.00;;
5452;SDS011;2749;53.576;9.822;2023-07-13T11:01:39;7.20;;;2.73;;
5452;SDS011;2749;53.576;9.822;2023-07-13T11:04:05;2.93;;;2.40;;
5452;SDS011;2749;53.576;9.822;2023-07-13T11:06:36;4.80;;;2.03;;
5452;SDS011;2749;53.576;9.822;2023-07-13T11:11:48;5.70;;;2.77;;
5452;SDS011;2749;53.576;9.822;2023-07-13T11:14:28;9.53;;;2.87;;
5452;SDS011;2749;53.576;9.822;2023-07-13T11:16:54;4.03;;;2.80;;
5452;SDS011;2749;53.576;9.822;2023-07-13T11:19:24;2.80;;;2.20;;
5452;SDS011;2749;53.576;9.822;2023-07-13T11:22:42;7.90;;;3.20;;
5452;SDS011;2749;53.576;9.822;2023-07-13T11:24:56;2.50;;;1.97;;
5452;SDS011;2749;53.576;9.822;2023-07-13T11:27:42;2.80;;;1.80;;
5452;SDS011;2749;53.576;9.822;2023-07-13T11:30:24;3.60;;;2.10;;
5452;SDS011;2749;53.576;9.822;2023-07-13T11:33:04;2.87;;;2.00;;
5452;SDS011;2749;53.576;9.822;2023-07-13T11:35:34;5.00;;;2.47;;
5452;SDS011;2749;53.576;9.822;2023-07-13T11:38:01;3.13;;;2.50;;
5452;SDS011;2749;53.576;9.822;2023-07-13T11:40:27;6.80;;;2.03;;
5452;SDS011;2749;53.576;9.822;2023-07-13T11:43:00;5.77;;;2.63;;
5452;SDS011;2749;53.576;9.822;2023-07-13T11:45:26;4.33;;;2.23;;
5452;SDS011;2749;53.576;9.822;2023-07-13T11:47:53;5.17;;;2.80;;
5452;SDS011;2749;53.576;9.822;2023-07-13T11:50:21;5.07;;;2.67;;
5452;SDS011;2749;53.576;9.822;2023-07-13T11:52:48;4.63;;;2.47;;
5452;SDS011;2749;53.576;9.822;2023-07-13T11:55:16;5.13;;;2.70;;
5452;SDS011;2749;53.576;9.822;2023-07-13T11:57:47;4.63;;;3.10;;
5452;SDS011;2749;53.576;9.822;2023-07-13T12:00:15;7.30;;;2.40;;
5452;SDS011;2749;53.576;9.822;2023-07-13T12:02:43;4.90;;;2.80;;
5452;SDS011;2749;53.576;9.822;2023-07-13T12:05:10;9.60;;;3.60;;
5452;SDS011;2749;53.576;9.822;2023-07-13T12:07:37;9.13;;;3.67;;
5452;SDS011;2749;53.576;9.822;2023-07-13T12:12:40;9.40;;;3.17;;
5452;SDS011;2749;53.576;9.822;2023-07-13T12:15:06;8.70;;;3.20;;
5452;SDS011;2749;53.576;9.822;2023-07-13T12:17:34;5.07;;;2.93;;
5452;SDS011;2749;53.576;9.822;2023-07-13T12:20:00;3.27;;;2.73;;
5452;SDS011;2749;53.576;9.822;2023-07-13T12:22:26;4.50;;;2.67;;
5452;SDS011;2749;53.576;9.822;2023-07-13T12:24:52;4.60;;;2.60;;
5452;SDS011;2749;53.576;9.822;2023-07-13T12:27:21;3.77;;;3.43;;
5452;SDS011;2749;53.576;9.822;2023-07-13T12:29:49;3.83;;;3.20;;
5452;SDS011;2749;53.576;9.822;2023-07-13T12:32:17;6.00;;;3.20;;
5452;SDS011;2749;53.576;9.822;2023-07-13T12:34:51;4.63;;;3.70;;
5452;SDS011;2749;53.576;9.822;2023-07-13T12:37:17;3.63;;;3.20;;
5452;SDS011;2749;53.576;9.822;2023-07-13T12:39:44;4.30;;;3.63;;
5452;SDS011;2749;53.576;9.822;2023-07-13T12:42:21;3.83;;;3.40;;
5452;SDS011;2749;53.576;9.822;2023-07-13T12:45:02;4.67;;;3.53;;
5452;SDS011;2749;53.576;9.822;2023-07-13T12:47:29;5.37;;;3.13;;
5452;SDS011;2749;53.576;9.822;2023-07-13T12:49:57;2.87;;;2.57;;
5452;SDS011;2749;53.576;9.822;2023-07-13T12:52:33;3.30;;;2.30;;
5452;SDS011;2749;53.576;9.822;2023-07-13T12:55:07;5.73;;;3.20;;
5452;SDS011;2749;53.576;9.822;2023-07-13T12:57:40;3.77;;;2.27;;
5452;SDS011;2749;53.576;9.822;2023-07-13T13:03:21;3.37;;;2.97;;
5452;SDS011;2749;53.576;9.822;2023-07-13T13:05:48;3.43;;;3.03;;
5452;SDS011;2749;53.576;9.822;2023-07-13T13:08:14;2.53;;;2.10;;
5452;SDS011;2749;53.576;9.822;2023-07-13T13:10:40;3.10;;;2.70;;
5452;SDS011;2749;53.576;9.822;2023-07-13T13:13:06;4.30;;;2.37;;
5452;SDS011;2749;53.576;9.822;2023-07-13T13:15:33;8.17;;;2.60;;
5452;SDS011;2749;53.576;9.822;2023-07-13T13:17:59;3.13;;;2.03;;
5452;SDS011;2749;53.576;9.822;2023-07-13T13:20:25;3.53;;;3.20;;
5452;SDS011;2749;53.576;9.822;2023-07-13T13:22:52;4.40;;;2.53;;
5452;SDS011;2749;53.576;9.822;2023-07-13T13:25:18;3.43;;;2.00;;
5452;SDS011;2749;53.576;9.822;2023-07-13T13:27:44;2.50;;;2.10;;
5452;SDS011;2749;53.576;9.822;2023-07-13T13:30:12;3.70;;;2.20;;
5452;SDS011;2749;53.576;9.822;2023-07-13T13:32:42;3.50;;;2.17;;
5452;SDS011;2749;53.576;9.822;2023-07-13T13:35:18;5.00;;;2.23;;
5452;SDS011;2749;53.576;9.822;2023-07-13T13:37:44;4.33;;;2.70;;
5452;SDS011;2749;53.576;9.822;2023-07-13T13:40:14;4.93;;;1.77;;
5452;SDS011;2749;53.576;9.822;2023-07-13T13:42:41;7.90;;;2.23;;
5452;SDS011;2749;53.576;9.822;2023-07-13T13:45:08;4.20;;;1.97;;
5452;SDS011;2749;53.576;9.822;2023-07-13T13:47:35;3.10;;;2.00;;
5452;SDS011;2749;53.576;9.822;2023-07-13T13:50:04;3.77;;;2.20;;
5452;SDS011;2749;53.576;9.822;2023-07-13T13:52:36;4.70;;;2.57;;
5452;SDS011;2749;53.576;9.822;2023-07-13T13:55:04;3.97;;;2.30;;
5452;SDS011;2749;53.576;9.822;2023-07-13T13:57:31;2.60;;;2.40;;
5452;SDS011;2749;53.576;9.822;2023-07-13T13:59:56;3.77;;;2.57;;
5452;SDS011;2749;53.576;9.822;2023-07-13T14:02:24;3.43;;;2.23;;
5452;SDS011;2749;53.576;9.822;2023-07-13T14:04:53;3.30;;;2.30;;
5452;SDS011;2749;53.576;9.822;2023-07-13T14:07:20;2.40;;;2.03;;
5452;SDS011;2749;53.576;9.822;2023-07-13T14:09:46;7.23;;;2.30;;
5452;SDS011;2749;53.576;9.822;2023-07-13T14:12:11;2.87;;;2.17;;
5452;SDS011;2749;53.576;9.822;2023-07-13T14:14:37;2.13;;;2.00;;
5452;SDS011;2749;53.576;9.822;2023-07-13T14:17:04;3.57;;;2.13;;
5452;SDS011;2749;53.576;9.822;2023-07-13T14:19:30;5.03;;;2.00;;
5452;SDS011;2749;53.576;9.822;2023-07-13T14:21:56;4.03;;;2.03;;
5452;SDS011;2749;53.576;9.822;2023-07-13T14:24:22;3.07;;;2.20;;
5452;SDS011;2749;53.576;9.822;2023-07-13T14:26:47;2.00;;;1.90;;
5452;SDS011;2749;53.576;9.822;2023-07-13T14:29:14;6.23;;;2.90;;
5452;SDS011;2749;53.576;9.822;2023-07-13T14:31:42;2.40;;;2.10;;
5452;SDS011;2749;53.576;9.822;2023-07-13T14:34:09;2.90;;;2.33;;
5452;SDS011;2749;53.576;9.822;2023-07-13T14:36:42;3.33;;;2.23;;
5452;SDS011;2749;53.576;9.822;2023-07-13T14:39:14;2.53;;;2.33;;
5452;SDS011;2749;53.576;9.822;2023-07-13T14:41:41;2.50;;;2.30;;
5452;SDS011;2749;53.576;9.822;2023-07-13T14:44:10;3.13;;;2.60;;
5452;SDS011;2749;53.576;9.822;2023-07-13T14:46:36;3.47;;;2.57;;
5452;SDS011;2749;53.576;9.822;2023-07-13T14:49:03;3.00;;;2.73;;
5452;SDS011;2749;53.576;9.822;2023-07-13T14:51:30;4.67;;;2.77;;
5452;SDS011;2749;53.576;9.822;2023-07-13T14:53:58;3.07;;;2.40;;
5452;SDS011;2749;53.576;9.822;2023-07-13T14:56:24;3.67;;;2.80;;
5452;SDS011;2749;53.576;9.822;2023-07-13T14:58:50;4.67;;;2.87;;
5452;SDS011;2749;53.576;9.822;2023-07-13T15:01:18;4.97;;;2.57;;
5452;SDS011;2749;53.576;9.822;2023-07-13T15:03:45;4.40;;;3.10;;
5452;SDS011;2749;53.576;9.822;2023-07-13T15:06:11;2.77;;;2.57;;
5452;SDS011;2749;53.576;9.822;2023-07-13T15:08:38;3.63;;;2.10;;
5452;SDS011;2749;53.576;9.822;2023-07-13T15:11:06;3.10;;;2.13;;
5452;SDS011;2749;53.576;9.822;2023-07-13T15:13:32;5.07;;;2.53;;
5452;SDS011;2749;53.576;9.822;2023-07-13T15:15:58;2.23;;;1.97;;
5452;SDS011;2749;53.576;9.822;2023-07-13T15:18:24;4.37;;;1.90;;
5452;SDS011;2749;53.576;9.822;2023-07-13T15:20:52;5.20;;;2.20;;
5452;SDS011;2749;53.576;9.822;2023-07-13T15:23:21;5.10;;;2.77;;
5452;SDS011;2749;53.576;9.822;2023-07-13T15:25:48;2.10;;;1.90;;
5452;SDS011;2749;53.576;9.822;2023-07-13T15:28:14;4.10;;;2.33;;
5452;SDS011;2749;53.576;9.822;2023-07-13T15:30:47;2.70;;;1.80;;
5452;SDS011;2749;53.576;9.822;2023-07-13T15:33:15;2.63;;;2.20;;